sensor_id;sensor_type;location;lat;lon;timestamp;pressure;altitude;pressure_sealevel;temperature;humidity
14757;BME280;62446;53.214;10.398;2022-11-24T15:35:17;100845.13;;;6.13;94.65
14757;BME280;62446;53.214;10.398;2022-11-24T15:38:23;100844.03;;;6.49;91.27
14757;BME280;62446;53.214;10.398;2022-11-24T15:41:28;100853.13;;;6.56;89.35
14757;BME280;62446;53.214;10.398;2022-11-24T15:44:32;100851.34;;;6.90;87.50
14757;BME280;62446;53.214;10.398;2022-11-24T15:47:36;100846.34;;;7.01;85.77
14757;BME280;62446;53.214;10.398;2022-11-24T15:50:41;100856.91;;;7.11;86.63
14757;BME280;62446;53.214;10.398;2022-11-24T15:53:47;100855.66;;;7.13;85.70
14757;BME280;62446;53.214;10.398;2022-11-24T15:56:55;100853.75;;;7.07;85.26
14757;BME280;62446;53.214;10.398;2022-11-24T15:59:59;100848.66;;;7.04;84.77
14757;BME280;62446;53.214;10.398;2022-11-24T16:03:03;100865.78;;;7.06;85.36
14757;BME280;62446;53.214;10.398;2022-11-24T16:06:28;100856.81;;;6.90;84.38
14757;BME280;62446;53.214;10.398;2022-11-24T16:09:32;100850.38;;;6.50;86.66
14757;BME280;62446;53.214;10.398;2022-11-24T16:12:35;100844.91;;;6.50;87.15
14757;BME280;62446;53.214;10.398;2022-11-24T16:15:39;100850.97;;;6.45;86.66
14757;BME280;62446;53.214;10.398;2022-11-24T16:18:43;100845.00;;;6.35;86.49
14757;BME280;62446;53.214;10.398;2022-11-24T16:21:48;100850.34;;;6.43;85.80
14757;BME280;62446;53.214;10.398;2022-11-24T16:24:52;100852.03;;;6.51;84.69
14757;BME280;62446;53.214;10.398;2022-11-24T16:27:56;100856.38;;;6.32;83.20
14757;BME280;62446;53.214;10.398;2022-11-24T16:31:00;100863.72;;;6.25;83.26
14757;BME280;62446;53.214;10.398;2022-11-24T16:34:03;100870.00;;;6.18;82.57
14757;BME280;62446;53.214;10.398;2022-11-24T16:37:08;100871.22;;;6.09;82.99
14757;BME280;62446;53.214;10.398;2022-11-24T16:40:12;100871.13;;;5.96;83.14
14757;BME280;62446;53.214;10.398;2022-11-24T16:43:16;100875.03;;;5.58;83.67
14757;BME280;62446;53.214;10.398;2022-11-24T16:46:21;100874.31;;;5.28;85.40
14757;BME280;62446;53.214;10.398;2022-11-24T16:49:25;100874.84;;;5.38;83.75
14757;BME280;62446;53.214;10.398;2022-11-24T16:52:30;100875.88;;;5.15;85.49
14757;BME280;62446;53.214;10.398;2022-11-24T16:55:34;100886.75;;;5.09;86.33
14757;BME280;62446;53.214;10.398;2022-11-24T16:58:39;100887.16;;;4.91;84.88
14757;BME280;62446;53.214;10.398;2022-11-24T17:01:43;100893.91;;;5.10;84.54
14757;BME280;62446;53.214;10.398;2022-11-24T17:04:48;100891.38;;;4.93;84.48
14757;BME280;62446;53.214;10.398;2022-11-24T17:07:55;100890.91;;;4.90;84.00
14757;BME280;62446;53.214;10.398;2022-11-24T17:11:04;100897.06;;;4.77;84.26
14757;BME280;62446;53.214;10.398;2022-11-24T17:14:08;100901.81;;;4.38;85.74
14757;BME280;62446;53.214;10.398;2022-11-24T17:17:12;100903.91;;;4.36;87.57
14757;BME280;62446;53.214;10.398;2022-11-24T17:20:16;100899.38;;;4.58;86.72
14757;BME280;62446;53.214;10.398;2022-11-24T17:23:21;100908.66;;;4.49;85.66
14757;BME280;62446;53.214;10.398;2022-11-24T17:26:26;100905.31;;;4.32;86.77
14757;BME280;62446;53.214;10.398;2022-11-24T17:29:30;100903.34;;;4.26;86.84
14757;BME280;62446;53.214;10.398;2022-11-24T17:32:33;100898.13;;;4.31;87.55
14757;BME280;62446;53.214;10.398;2022-11-24T17:35:37;100900.69;;;4.33;86.25
14757;BME280;62446;53.214;10.398;2022-11-24T17:38:42;100903.97;;;4.28;84.65
14757;BME280;62446;53.214;10.398;2022-11-24T17:41:46;100911.53;;;4.26;85.53
14757;BME280;62446;53.214;10.398;2022-11-24T17:44:50;100911.78;;;4.01;87.23
14757;BME280;62446;53.214;10.398;2022-11-24T17:47:54;100913.94;;;4.06;86.14
14757;BME280;62446;53.214;10.398;2022-11-24T17:50:59;100920.16;;;4.00;86.15
14757;BME280;62446;53.214;10.398;2022-11-24T17:54:04;100924.69;;;4.22;85.37
14757;BME280;62446;53.214;10.398;2022-11-24T17:57:28;100930.50;;;4.04;83.81
14757;BME280;62446;53.214;10.398;2022-11-24T18:00:32;100929.09;;;4.08;84.05
14757;BME280;62446;53.214;10.398;2022-11-24T18:03:37;100934.75;;;4.07;84.50
14757;BME280;62446;53.214;10.398;2022-11-24T18:06:40;100943.78;;;4.07;84.39
14757;BME280;62446;53.214;10.398;2022-11-24T18:09:46;100946.56;;;3.99;82.87
14757;BME280;62446;53.214;10.398;2022-11-24T18:12:49;100948.00;;;3.95;83.45
14757;BME280;62446;53.214;10.398;2022-11-24T18:15:53;100949.22;;;3.69;84.23
14757;BME280;62446;53.214;10.398;2022-11-24T18:18:59;100941.63;;;3.33;85.00
14757;BME280;62446;53.214;10.398;2022-11-24T18:22:11;100946.47;;;3.23;84.25
14757;BME280;62446;53.214;10.398;2022-11-24T18:25:17;100950.78;;;3.40;84.38
14757;BME280;62446;53.214;10.398;2022-11-24T18:28:20;100960.56;;;3.58;85.26
14757;BME280;62446;53.214;10.398;2022-11-24T18:31:24;100961.50;;;3.42;83.55
14757;BME280;62446;53.214;10.398;2022-11-24T18:34:28;100958.34;;;3.30;84.58
14757;BME280;62446;53.214;10.398;2022-11-24T18:37:32;100974.50;;;3.08;85.26
14757;BME280;62446;53.214;10.398;2022-11-24T18:40:39;100968.97;;;3.25;85.05
14757;BME280;62446;53.214;10.398;2022-11-24T18:43:43;100965.84;;;3.05;84.38
14757;BME280;62446;53.214;10.398;2022-11-24T18:46:47;100964.72;;;3.22;85.98
14757;BME280;62446;53.214;10.398;2022-11-24T18:49:51;100977.97;;;3.25;85.27
14757;BME280;62446;53.214;10.398;2022-11-24T18:52:55;100974.72;;;3.30;85.04
14757;BME280;62446;53.214;10.398;2022-11-24T18:56:01;100975.69;;;3.37;85.31
14757;BME280;62446;53.214;10.398;2022-11-24T18:59:06;100974.00;;;3.36;83.57
14757;BME280;62446;53.214;10.398;2022-11-24T19:02:09;100979.44;;;3.36;83.72
14757;BME280;62446;53.214;10.398;2022-11-24T19:05:14;100978.72;;;3.19;81.66
14757;BME280;62446;53.214;10.398;2022-11-24T19:08:17;100979.44;;;3.13;81.92
14757;BME280;62446;53.214;10.398;2022-11-24T19:11:24;100987.78;;;3.12;82.79
14757;BME280;62446;53.214;10.398;2022-11-24T19:14:29;100989.38;;;2.98;80.84
14757;BME280;62446;53.214;10.398;2022-11-24T19:17:32;100994.50;;;2.93;82.51
14757;BME280;62446;53.214;10.398;2022-11-24T19:20:36;100984.31;;;2.86;83.35
14757;BME280;62446;53.214;10.398;2022-11-24T19:23:40;100988.16;;;2.61;83.10
14757;BME280;62446;53.214;10.398;2022-11-24T19:26:45;100994.44;;;2.53;85.10
14757;BME280;62446;53.214;10.398;2022-11-24T19:29:49;100992.22;;;2.48;86.24
14757;BME280;62446;53.214;10.398;2022-11-24T19:32:52;100991.53;;;2.71;86.98
14757;BME280;62446;53.214;10.398;2022-11-24T19:35:59;100994.06;;;2.72;84.69
14757;BME280;62446;53.214;10.398;2022-11-24T19:39:03;101000.81;;;2.93;84.67
14757;BME280;62446;53.214;10.398;2022-11-24T19:42:09;101005.53;;;2.99;85.18
14757;BME280;62446;53.214;10.398;2022-11-24T19:45:12;101000.28;;;2.89;87.19
14757;BME280;62446;53.214;10.398;2022-11-24T19:48:16;101001.16;;;2.90;86.11
14757;BME280;62446;53.214;10.398;2022-11-24T19:51:21;101009.59;;;3.12;84.46
14757;BME280;62446;53.214;10.398;2022-11-24T19:54:26;101014.44;;;3.24;85.60
14757;BME280;62446;53.214;10.398;2022-11-24T19:57:31;101019.84;;;3.33;84.59
14757;BME280;62446;53.214;10.398;2022-11-24T20:00:35;101023.41;;;3.33;83.93
14757;BME280;62446;53.214;10.398;2022-11-24T20:03:40;101017.50;;;3.30;84.03
14757;BME280;62446;53.214;10.398;2022-11-24T20:06:45;101014.94;;;3.28;83.74
14757;BME280;62446;53.214;10.398;2022-11-24T20:09:49;101027.75;;;3.19;83.94
14757;BME280;62446;53.214;10.398;2022-11-24T20:12:54;101031.03;;;3.15;84.53
14757;BME280;62446;53.214;10.398;2022-11-24T20:16:01;101026.13;;;3.02;86.20
14757;BME280;62446;53.214;10.398;2022-11-24T20:19:08;101025.56;;;3.15;85.47
14757;BME280;62446;53.214;10.398;2022-11-24T20:22:12;101032.88;;;3.14;83.94
14757;BME280;62446;53.214;10.398;2022-11-24T20:25:15;101028.53;;;2.97;84.10
14757;BME280;62446;53.214;10.398;2022-11-24T20:28:21;101027.69;;;2.88;85.41
14757;BME280;62446;53.214;10.398;2022-11-24T20:31:26;101041.38;;;2.80;85.58
14757;BME280;62446;53.214;10.398;2022-11-24T20:34:30;101040.47;;;2.87;84.58
14757;BME280;62446;53.214;10.398;2022-11-24T20:37:34;101038.94;;;2.85;85.33
14757;BME280;62446;53.214;10.398;2022-11-24T20:40:38;101041.31;;;2.88;85.54
14757;BME280;62446;53.214;10.398;2022-11-24T20:43:44;101047.03;;;3.18;83.78
14757;BME280;62446;53.214;10.398;2022-11-24T20:46:48;101052.09;;;3.21;82.35
14757;BME280;62446;53.214;10.398;2022-11-24T20:49:52;101058.31;;;2.98;82.25
14757;BME280;62446;53.214;10.398;2022-11-24T20:52:56;101055.28;;;2.93;84.04
14757;BME280;62446;53.214;10.398;2022-11-24T20:56:00;101065.00;;;2.79;84.46
14757;BME280;62446;53.214;10.398;2022-11-24T20:59:11;101060.44;;;2.80;83.51
14757;BME280;62446;53.214;10.398;2022-11-24T21:02:15;101069.63;;;2.79;82.14
14757;BME280;62446;53.214;10.398;2022-11-24T21:05:19;101059.38;;;2.89;83.23
14757;BME280;62446;53.214;10.398;2022-11-24T21:08:22;101063.47;;;2.85;83.53
14757;BME280;62446;53.214;10.398;2022-11-24T21:11:26;101074.38;;;2.85;83.29
14757;BME280;62446;53.214;10.398;2022-11-24T21:14:31;101062.81;;;2.75;81.01
14757;BME280;62446;53.214;10.398;2022-11-24T21:17:36;101069.13;;;2.75;82.22
14757;BME280;62446;53.214;10.398;2022-11-24T21:20:40;101073.34;;;2.78;82.13
14757;BME280;62446;53.214;10.398;2022-11-24T21:23:44;101071.69;;;2.68;81.67
14757;BME280;62446;53.214;10.398;2022-11-24T21:26:48;101074.75;;;2.65;80.90
14757;BME280;62446;53.214;10.398;2022-11-24T21:29:55;101076.97;;;2.53;82.47
14757;BME280;62446;53.214;10.398;2022-11-24T21:33:00;101082.06;;;2.40;82.05
14757;BME280;62446;53.214;10.398;2022-11-24T21:36:04;101082.91;;;2.41;82.16
14757;BME280;62446;53.214;10.398;2022-11-24T21:39:09;101074.44;;;2.27;81.93
14757;BME280;62446;53.214;10.398;2022-11-24T21:42:14;101071.53;;;2.20;82.66
